Time;durP1;ratioP1;P1;durP2;ratioP2;P2;SDS_P1;SDS_P2;PMS_P1;PMS_P2;Temp;Humidity;BMP_temperature;BMP_pressure;BME280_temperature;BME280_humidity;BME280_pressure;Samples;Min_cycle;Max_cycle;Signal;HPM_P1;HPM_P2
2021/11/07 00:00:29;;;;;;;55.17;39.60;;;;;;;15.49;76.17;100587.06;5093816;28;20024;-73
2021/11/07 00:05:44;;;;;;;55.38;39.35;;;;;;;15.52;76.55;100613.28;5093650;28;20100;-73
2021/11/07 00:11:19;;;;;;;50.22;35.65;;;;;;;15.34;76.58;100580.91;5081336;28;20115;-73
2021/11/07 00:13:45;;;;;;;47.10;33.88;;;;;;;15.36;76.52;100579.72;5093713;28;20404;-73
2021/11/07 00:16:15;;;;;;;51.83;36.78;;;;;;;15.42;76.11;100586.97;5093474;28;20031;-73
2021/11/07 00:18:53;;;;;;;52.63;36.53;;;;;;;15.49;76.46;100603.84;5093407;28;20077;-73
2021/11/07 00:21:23;;;;;;;43.72;32.03;;;;;;;15.31;76.10;100573.28;5093594;28;20028;-73
2021/11/07 00:26:29;;;;;;;54.00;35.90;;;;;;;15.08;76.36;100539.63;5093300;28;20416;-73
2021/11/07 00:29:08;;;;;;;49.28;33.38;;;;;;;15.41;76.47;100595.94;5093255;28;20102;-73
2021/11/07 00:34:37;;;;;;;56.20;38.15;;;;;;;15.42;76.48;100602.09;5092984;28;20016;-73
2021/11/07 00:37:05;;;;;;;58.45;39.42;;;;;;;15.19;76.13;100565.75;5092713;28;20024;-73
2021/11/07 00:44:36;;;;;;;51.05;36.17;;;;;;;15.39;76.39;100591.81;5093135;28;20168;-73
2021/11/07 00:47:14;;;;;;;47.70;34.25;;;;;;;15.39;76.46;100589.16;5092992;28;20039;-73
2021/11/07 00:49:49;;;;;;;46.70;35.53;;;;;;;15.45;76.13;100601.72;5092981;28;20507;-73
2021/11/07 00:52:27;;;;;;;49.97;35.75;;;;;;;15.09;76.17;100527.97;5092806;28;20111;-74
2021/11/07 00:55:03;;;;;;;54.75;39.03;;;;;;;15.33;75.90;100565.94;5092792;28;20024;-73
2021/11/07 01:00:16;;;;;;;57.22;39.78;;;;;;;15.47;75.80;100581.09;5092692;28;20521;-73
2021/11/07 01:02:42;;;;;;;53.10;38.28;;;;;;;15.22;75.95;100544.13;5091085;28;20469;-74
2021/11/07 01:05:29;;;;;;;49.65;35.42;;;;;;;15.42;76.16;100578.16;5092384;28;20028;-73
2021/11/07 01:07:55;;;;;;;53.30;36.50;;;;;;;15.46;76.22;100580.25;5092265;28;20020;-73
2021/11/07 01:10:22;;;;;;;63.20;44.38;;;;;;;15.47;76.09;100581.09;5092387;28;20409;-73
2021/11/07 01:12:48;;;;;;;57.13;40.80;;;;;;;15.41;76.07;100574.66;5092319;28;20012;-73
2021/11/07 01:15:14;;;;;;;60.58;41.55;;;;;;;15.39;76.02;100574.03;5091287;28;20016;-73
2021/11/07 01:17:40;;;;;;;59.17;39.08;;;;;;;15.40;75.95;100580.16;5092208;28;20035;-73
2021/11/07 01:20:08;;;;;;;57.45;38.20;;;;;;;15.41;75.78;100573.84;5092393;28;20080;-73
2021/11/07 01:22:54;;;;;;;57.10;39.33;;;;;;;15.40;75.93;100565.03;5092369;28;20038;-73
2021/11/07 01:25:20;;;;;;;56.55;39.45;;;;;;;15.38;76.11;100568.88;5092547;28;20031;-73
2021/11/07 01:27:46;;;;;;;53.75;38.55;;;;;;;15.32;76.23;100578.44;5092211;28;20008;-73
2021/11/07 01:30:22;;;;;;;57.72;41.10;;;;;;;15.34;76.03;100573.75;5092021;28;20028;-74
2021/11/07 01:32:54;;;;;;;57.78;41.50;;;;;;;15.38;76.13;100569.72;5091920;28;20066;-73
2021/11/07 01:40:33;;;;;;;48.63;34.33;;;;;;;15.05;75.58;100512.56;5092074;28;20024;-73
2021/11/07 01:43:00;;;;;;;53.08;36.00;;;;;;;15.26;75.52;100540.09;5092017;28;20416;-73
2021/11/07 01:45:29;;;;;;;54.53;36.72;;;;;;;15.34;75.63;100551.63;5091771;28;20499;-74
2021/11/07 01:48:06;;;;;;;48.10;34.97;;;;;;;15.40;75.64;100557.03;5090045;28;20016;-73
2021/11/07 01:50:35;;;;;;;50.13;35.83;;;;;;;15.38;75.63;100558.25;5091896;28;20020;-73
2021/11/07 01:53:22;;;;;;;49.90;36.75;;;;;;;15.29;75.70;100551.38;5090442;28;20073;-73
2021/11/07 01:55:49;;;;;;;53.22;36.83;;;;;;;15.39;75.74;100567.88;5091872;28;20127;-73
2021/11/07 01:58:14;;;;;;;50.30;35.83;;;;;;;15.26;75.24;100550.72;5091627;28;20028;-73
2021/11/07 02:00:40;;;;;;;54.22;37.67;;;;;;;15.02;75.54;100515.59;5091743;28;20412;-73
2021/11/07 02:03:06;;;;;;;52.20;35.85;;;;;;;15.29;75.50;100564.66;5091524;28;20046;-73
2021/11/07 02:05:31;;;;;;;56.15;39.67;;;;;;;15.31;75.53;100566.13;5091459;28;20404;-73
2021/11/07 02:07:57;;;;;;;49.47;37.38;;;;;;;15.31;75.68;100581.28;5091302;28;20099;-73
2021/11/07 02:10:22;;;;;;;53.65;36.63;;;;;;;15.34;75.67;100570.25;5091341;28;20020;-73
2021/11/07 02:12:48;;;;;;;55.85;39.15;;;;;;;15.13;75.45;100545.22;5091304;28;20020;-73
2021/11/07 02:15:18;;;;;;;52.28;37.72;;;;;;;15.34;75.22;100581.72;5091545;28;20466;-73
2021/11/07 02:17:44;;;;;;;54.95;36.45;;;;;;;15.37;75.29;100577.88;5091373;28;20488;-73
2021/11/07 02:20:16;;;;;;;53.42;39.00;;;;;;;15.00;75.12;100517.59;5091481;28;20028;-74
2021/11/07 02:22:42;;;;;;;45.88;35.15;;;;;;;15.05;75.19;100524.03;5091072;28;20099;-73
2021/11/07 02:25:09;;;;;;;59.78;39.47;;;;;;;15.40;75.01;100580.16;5091408;28;20404;-73
2021/11/07 02:27:35;;;;;;;56.53;38.58;;;;;;;15.41;75.26;100571.19;5091478;28;20028;-73
2021/11/07 02:30:00;;;;;;;54.92;37.80;;;;;;;15.28;75.06;100561.19;5091408;28;20024;-73
2021/11/07 02:32:27;;;;;;;55.47;36.47;;;;;;;15.40;74.96;100572.19;5091266;28;20087;-73
2021/11/07 02:34:53;;;;;;;48.42;35.88;;;;;;;15.36;75.32;100560.25;5091323;28;20050;-74
2021/11/07 02:37:19;;;;;;;49.67;35.45;;;;;;;15.13;75.05;100526.59;5091206;28;20055;-73
2021/11/07 02:39:45;;;;;;;51.83;37.05;;;;;;;15.30;74.97;100547.69;5091221;28;20552;-73
2021/11/07 02:42:12;;;;;;;52.40;37.05;;;;;;;15.39;74.86;100560.72;5090921;28;20103;-73
2021/11/07 02:44:41;;;;;;;54.03;36.72;;;;;;;15.40;74.64;100548.25;5091034;28;20024;-73
2021/11/07 02:47:10;;;;;;;46.63;35.13;;;;;;;15.40;74.52;100561.53;5091245;28;20408;-73
2021/11/07 02:49:37;;;;;;;49.53;35.88;;;;;;;15.21;74.45;100534.47;5091111;28;20020;-73
2021/11/07 02:52:05;;;;;;;51.35;37.88;;;;;;;15.39;74.57;100559.88;5091413;28;20024;-72
2021/11/07 02:54:31;;;;;;;51.92;37.45;;;;;;;15.18;74.36;100521.56;5091528;28;20028;-74
2021/11/07 02:56:58;;;;;;;52.65;38.15;;;;;;;15.16;74.46;100531.56;5091128;28;20049;-74
2021/11/07 02:59:27;;;;;;;53.28;37.05;;;;;;;15.34;74.62;100549.81;5091002;28;20058;-74
2021/11/07 03:01:55;;;;;;;45.80;34.45;;;;;;;15.32;74.18;100543.84;5094643;28;20497;-74
2021/11/07 03:04:21;;;;;;;45.67;32.53;;;;;;;15.16;74.11;100518.25;5094786;28;20048;-74
2021/11/07 03:06:47;;;;;;;40.95;31.10;;;;;;;15.37;74.38;100548.59;5094754;28;20480;-74
2021/11/07 03:09:22;;;;;;;47.25;36.15;;;;;;;15.37;73.91;100552.09;5094717;28;20045;-74
2021/11/07 03:11:48;;;;;;;49.17;34.00;;;;;;;14.95;73.89;100496.88;5094909;28;20062;-74
2021/11/07 03:14:20;;;;;;;43.85;31.50;;;;;;;15.33;73.75;100560.63;5094990;28;20404;-74
2021/11/07 03:16:46;;;;;;;47.70;32.50;;;;;;;15.31;73.71;100557.31;5094759;28;20403;-74
2021/11/07 03:19:12;;;;;;;43.38;33.33;;;;;;;15.32;73.50;100553.66;5094484;28;20114;-74
2021/11/07 03:21:41;;;;;;;44.30;32.83;;;;;;;15.33;73.67;100557.97;5094527;28;20062;-74
2021/11/07 03:24:08;;;;;;;46.55;32.78;;;;;;;15.33;73.75;100564.13;5093376;28;20115;-72
2021/11/07 03:26:35;;;;;;;42.53;31.52;;;;;;;15.30;73.72;100566.31;5094566;28;20020;-74
2021/11/07 03:29:02;;;;;;;43.13;32.60;;;;;;;14.65;73.45;100458.78;5094316;28;20027;-74
2021/11/07 03:34:30;;;;;;;44.80;32.65;;;;;;;15.38;73.24;100564.38;5094566;28;20039;-74
2021/11/07 03:36:58;;;;;;;39.58;29.95;;;;;;;15.38;73.10;100569.72;5094374;28;20024;-74
2021/11/07 03:39:27;;;;;;;48.75;34.88;;;;;;;15.37;72.50;100559.25;5094128;28;20024;-74
2021/11/07 03:41:54;;;;;;;47.22;35.47;;;;;;;15.36;72.63;100566.41;5094322;28;20488;-74
2021/11/07 03:44:21;;;;;;;44.05;31.13;;;;;;;15.27;72.92;100551.53;5094153;28;20016;-74
2021/11/07 03:46:50;;;;;;;41.90;31.42;;;;;;;15.16;72.54;100538.72;5094063;28;20022;-74
2021/11/07 03:49:17;;;;;;;42.90;30.52;;;;;;;15.33;72.79;100560.63;5094108;28;20020;-75
2021/11/07 03:51:44;;;;;;;43.60;31.50;;;;;;;15.31;72.93;100563.47;5092808;28;20032;-74
2021/11/07 03:54:12;;;;;;;46.05;32.90;;;;;;;15.20;72.95;100553.28;5093963;28;20019;-75
2021/11/07 03:56:37;;;;;;;50.00;34.67;;;;;;;15.15;72.63;100532.56;5093997;28;20548;-74
2021/11/07 03:59:03;;;;;;;51.47;35.22;;;;;;;14.97;72.67;100513.47;5093719;28;20100;-74
2021/11/07 04:01:29;;;;;;;52.58;35.65;;;;;;;15.04;72.73;100533.03;5093892;28;20488;-75
2021/11/07 04:03:55;;;;;;;56.22;40.17;;;;;;;15.28;72.77;100563.84;5093751;28;20081;-74
2021/11/07 04:06:20;;;;;;;59.47;39.78;;;;;;;14.99;72.84;100524.75;5092667;28;20020;-75
2021/11/07 04:08:46;;;;;;;55.08;35.30;;;;;;;15.26;72.69;100569.34;5093812;28;20023;-74
2021/11/07 04:11:12;;;;;;;52.13;35.45;;;;;;;14.78;72.59;100490.88;5092123;28;20428;-74
2021/11/07 04:13:39;;;;;;;53.38;37.38;;;;;;;15.29;72.95;100567.31;5093691;28;20028;-74
2021/11/07 04:16:07;;;;;;;53.22;36.28;;;;;;;15.31;73.07;100568.78;5093672;28;20405;-74
2021/11/07 04:18:34;;;;;;;58.05;38.42;;;;;;;15.01;72.74;100513.94;5092090;28;20413;-74
2021/11/07 04:20:59;;;;;;;49.05;34.88;;;;;;;15.22;72.66;100552.09;5093646;28;20044;-74
2021/11/07 04:23:25;;;;;;;55.90;37.63;;;;;;;14.93;72.64;100505.03;5093316;28;20445;-74
2021/11/07 04:25:50;;;;;;;48.78;33.53;;;;;;;15.06;72.40;100528.34;5093518;28;20027;-74
2021/11/07 04:28:16;;;;;;;45.10;30.25;;;;;;;15.27;72.34;100563.00;5093305;28;20020;-74
2021/11/07 04:30:42;;;;;;;49.00;32.60;;;;;;;15.23;72.50;100560.91;5093245;28;20012;-74
2021/11/07 04:33:07;;;;;;;47.08;30.10;;;;;;;14.86;72.57;100506.78;5093256;28;20031;-74
2021/11/07 04:35:32;;;;;;;47.15;31.10;;;;;;;15.20;72.27;100562.09;5093011;28;20020;-74
2021/11/07 04:37:58;;;;;;;45.67;30.45;;;;;;;15.20;72.16;100559.44;5092935;28;20385;-74
2021/11/07 04:40:25;;;;;;;47.55;31.08;;;;;;;15.22;72.40;100560.09;5091826;28;20166;-74
2021/11/07 04:42:51;;;;;;;49.63;30.70;;;;;;;14.90;72.24;100528.50;5093054;28;20020;-74
2021/11/07 04:45:17;;;;;;;46.90;32.72;;;;;;;15.22;72.13;100577.88;5092917;28;20569;-74
2021/11/07 04:47:43;;;;;;;45.03;31.75;;;;;;;15.21;72.35;100577.06;5092829;28;20031;-74
2021/11/07 04:50:10;;;;;;;49.42;33.58;;;;;;;15.21;72.22;100565.59;5092908;28;20023;-74
2021/11/07 04:52:36;;;;;;;44.35;30.77;;;;;;;15.23;72.12;100564.38;5093043;28;20039;-74
2021/11/07 04:55:02;;;;;;;44.78;32.78;;;;;;;15.23;72.28;100568.88;5092813;28;20017;-74
2021/11/07 04:57:27;;;;;;;43.15;30.50;;;;;;;15.11;72.03;100552.56;5092728;28;20035;-74
2021/11/07 04:59:52;;;;;;;47.17;31.90;;;;;;;14.86;72.38;100512.09;5092733;28;20447;-74
2021/11/07 05:02:18;;;;;;;48.25;31.77;;;;;;;15.17;72.49;100575.75;5092736;28;20103;-74
2021/11/07 05:04:43;;;;;;;42.83;31.02;;;;;;;14.96;72.30;100538.44;5092598;28;20016;-74
2021/11/07 05:07:09;;;;;;;46.65;33.42;;;;;;;15.12;72.28;100564.84;5092710;28;20491;-74
2021/11/07 05:09:35;;;;;;;42.47;30.58;;;;;;;15.06;72.83;100564.75;5092656;28;20039;-74
2021/11/07 05:12:01;;;;;;;43.88;31.38;;;;;;;14.77;72.72;100529.09;5092514;28;20020;-74
2021/11/07 05:14:26;;;;;;;42.20;31.35;;;;;;;14.75;72.49;100533.78;5092607;28;20099;-74
2021/11/07 05:16:52;;;;;;;46.55;34.60;;;;;;;15.06;72.37;100578.88;5092411;28;20106;-74
2021/11/07 05:19:18;;;;;;;45.08;32.05;;;;;;;14.88;72.21;100554.47;5092579;28;20035;-74
2021/11/07 05:21:44;;;;;;;42.63;31.05;;;;;;;14.91;72.20;100554.94;5090983;28;20027;-74
2021/11/07 05:24:09;;;;;;;50.67;34.80;;;;;;;14.67;72.25;100522.41;5091480;28;20016;-74
2021/11/07 05:26:35;;;;;;;54.17;36.47;;;;;;;15.04;71.91;100591.53;5092378;28;20047;-74
2021/11/07 05:29:02;;;;;;;57.78;40.05;;;;;;;14.88;72.29;100571.25;5092222;28;20044;-74
2021/11/07 05:31:29;;;;;;;68.47;48.95;;;;;;;15.02;72.17;100593.53;5092072;28;20026;-74
2021/11/07 05:33:55;;;;;;;75.85;49.85;;;;;;;15.05;72.19;100595.00;5092043;28;20058;-74
2021/11/07 05:36:21;;;;;;;68.13;45.85;;;;;;;15.00;72.10;100576.94;5092003;28;20048;-74
2021/11/07 05:38:47;;;;;;;66.40;42.92;;;;;;;15.10;72.40;100595.28;5092015;28;20020;-74
2021/11/07 05:41:13;;;;;;;61.75;41.75;;;;;;;15.08;72.43;100592.81;5091941;28;20028;-74
2021/11/07 05:43:40;;;;;;;61.47;43.72;;;;;;;14.89;72.22;100562.25;5091962;28;20024;-74
2021/11/07 05:46:05;;;;;;;65.55;43.20;;;;;;;15.12;72.24;100599.44;5091936;28;20012;-74
2021/11/07 05:48:31;;;;;;;66.03;44.28;;;;;;;15.10;72.49;100598.78;5091974;28;20070;-74
2021/11/07 05:50:57;;;;;;;63.90;40.38;;;;;;;15.14;72.39;100599.25;5091649;28;20028;-74
2021/11/07 05:53:23;;;;;;;69.57;45.35;;;;;;;14.99;72.37;100569.97;5091592;28;20093;-74
2021/11/07 05:55:49;;;;;;;65.93;44.50;;;;;;;15.15;72.52;100598.25;5091740;28;20048;-74
2021/11/07 05:58:15;;;;;;;74.18;46.05;;;;;;;15.19;72.33;100604.84;5091683;28;20511;-74
2021/11/07 06:00:40;;;;;;;69.35;42.42;;;;;;;15.17;72.53;100607.69;5091761;28;20058;-74
2021/11/07 06:03:07;;;;;;;59.35;37.05;;;;;;;14.79;72.57;100544.88;5091700;28;20028;-74
2021/11/07 06:05:34;;;;;;;57.47;38.00;;;;;;;15.16;72.69;100607.88;5090481;28;20051;-74
2021/11/07 06:08:00;;;;;;;56.00;35.60;;;;;;;15.10;72.77;100596.13;5091732;28;20019;-73
2021/11/07 06:10:25;;;;;;;56.42;37.70;;;;;;;15.19;72.85;100605.69;5091512;28;20032;-74
2021/11/07 06:12:52;;;;;;;62.85;40.42;;;;;;;15.08;72.52;100592.00;5091675;28;20027;-74
2021/11/07 06:15:17;;;;;;;61.80;40.13;;;;;;;15.20;72.49;100615.31;5091593;28;20027;-74
2021/11/07 06:17:43;;;;;;;64.75;43.05;;;;;;;15.13;72.62;100598.41;5091429;28;20058;-74
2021/11/07 06:20:09;;;;;;;62.25;41.35;;;;;;;15.21;72.87;100606.31;5091460;28;20031;-74
2021/11/07 06:22:35;;;;;;;55.47;38.35;;;;;;;14.86;72.70;100553.78;5091354;28;20027;-74
2021/11/07 06:25:00;;;;;;;54.38;36.67;;;;;;;15.16;73.20;100597.22;5091439;28;20012;-74
2021/11/07 06:27:28;;;;;;;46.22;33.40;;;;;;;15.12;73.35;100598.59;5090153;28;20016;-74
2021/11/07 06:29:54;;;;;;;45.38;31.20;;;;;;;15.12;73.23;100598.59;5091304;28;20029;-74
2021/11/07 06:32:19;;;;;;;50.38;33.75;;;;;;;15.14;73.50;100602.72;5090064;28;20016;-74
2021/11/07 06:34:45;;;;;;;55.38;35.50;;;;;;;15.15;73.39;100601.72;5093203;28;20012;-73
2021/11/07 06:37:11;;;;;;;51.88;35.17;;;;;;;15.13;73.32;100609.06;5094255;28;20020;-74
2021/11/07 06:39:37;;;;;;;53.78;37.15;;;;;;;15.04;73.11;100596.84;5095317;28;20052;-74
2021/11/07 06:42:04;;;;;;;55.45;38.75;;;;;;;15.17;73.31;100615.66;5095337;28;20022;-74
2021/11/07 06:44:30;;;;;;;57.47;36.80;;;;;;;15.14;73.37;100616.03;5095251;28;20546;-74
2021/11/07 06:46:57;;;;;;;64.13;40.38;;;;;;;15.14;73.52;100610.72;5095000;28;20020;-74
2021/11/07 06:49:22;;;;;;;77.28;45.40;;;;;;;15.18;73.10;100609.34;5095217;28;20024;-74
2021/11/07 06:51:48;;;;;;;68.35;42.03;;;;;;;15.18;73.33;100617.31;5095350;28;20024;-74
2021/11/07 06:54:14;;;;;;;62.55;37.58;;;;;;;15.18;73.15;100611.19;5095264;28;20028;-74
2021/11/07 06:56:40;;;;;;;63.60;39.78;;;;;;;15.11;73.29;100583.66;5095236;28;20031;-74
2021/11/07 06:59:06;;;;;;;60.75;37.85;;;;;;;15.23;72.96;100598.97;5094996;28;20016;-74
2021/11/07 07:01:33;;;;;;;55.40;35.50;;;;;;;15.24;73.19;100595.31;5095087;28;20026;-74
2021/11/07 07:03:58;;;;;;;59.70;33.45;;;;;;;15.04;73.08;100561.44;5094722;28;20028;-74
2021/11/07 07:06:24;;;;;;;57.88;36.72;;;;;;;15.21;73.43;100589.53;5094949;28;20515;-74
2021/11/07 07:08:56;;;;;;;64.15;38.58;;;;;;;14.96;73.36;100550.91;5095116;28;20028;-74
2021/11/07 07:11:35;;;;;;;59.85;36.75;;;;;;;15.26;73.33;100581.81;5094975;28;20511;-74
2021/11/07 07:14:11;;;;;;;65.10;39.78;;;;;;;15.13;73.33;100560.34;5094840;28;20024;-74
2021/11/07 07:24:50;;;;;;;50.35;33.38;;;;;;;15.27;73.39;100604.75;5094687;28;20028;-74
2021/11/07 07:34:53;;;;;;;43.00;30.15;;;;;;;14.97;73.16;100536.59;5094453;28;20031;-74
2021/11/07 07:37:19;;;;;;;48.03;32.65;;;;;;;14.94;73.49;100541.25;5094379;28;20364;-74
2021/11/07 07:39:45;;;;;;;48.08;30.73;;;;;;;15.25;73.37;100586.31;5094302;28;20024;-74
2021/11/07 07:42:10;;;;;;;47.97;31.42;;;;;;;14.98;73.41;100538.25;5094031;28;20471;-74
2021/11/07 07:44:35;;;;;;;46.92;33.20;;;;;;;14.96;73.53;100537.59;5094119;28;20015;-74
2021/11/07 07:47:02;;;;;;;47.28;32.22;;;;;;;14.99;73.67;100532.75;5093352;28;20440;-74
2021/11/07 07:49:28;;;;;;;48.75;30.42;;;;;;;15.31;73.44;100578.63;5094095;28;20017;-74
2021/11/07 07:51:55;;;;;;;51.45;32.88;;;;;;;15.31;73.64;100571.47;5094007;28;20488;-74
2021/11/07 07:54:21;;;;;;;46.85;30.65;;;;;;;15.08;73.81;100539.63;5093981;28;20069;-73
2021/11/07 07:56:48;;;;;;;49.92;34.17;;;;;;;15.10;73.62;100548.25;5093899;28;20030;-74
2021/11/07 07:59:14;;;;;;;57.00;36.08;;;;;;;15.26;73.64;100572.00;5093850;28;20020;-74
2021/11/07 08:01:39;;;;;;;59.28;35.83;;;;;;;15.25;73.72;100577.50;5093954;28;20023;-74
2021/11/07 08:04:05;;;;;;;159.05;75.03;;;;;;;15.24;73.73;100579.34;5093825;28;20480;-74
2021/11/07 08:06:30;;;;;;;145.40;72.40;;;;;;;15.19;73.97;100583.56;5093748;28;20024;-74
2021/11/07 08:08:57;;;;;;;142.65;67.22;;;;;;;15.19;73.69;100588.88;5093944;28;20099;-74
2021/11/07 08:11:23;;;;;;;133.88;64.00;;;;;;;15.02;73.85;100558.97;5092328;28;20054;-74
2021/11/07 08:13:51;;;;;;;127.90;61.95;;;;;;;15.24;73.86;100584.66;5093634;28;20108;-74
2021/11/07 08:16:17;;;;;;;120.30;59.13;;;;;;;15.28;73.60;100579.81;5093592;28;20031;-74
2021/11/07 08:18:43;;;;;;;131.07;60.45;;;;;;;15.33;73.40;100581.91;5093430;28;20081;-74
2021/11/07 08:21:09;;;;;;;124.97;59.63;;;;;;;14.93;73.57;100502.38;5093516;28;20095;-74
2021/11/07 08:23:35;;;;;;;114.45;56.20;;;;;;;15.29;73.54;100567.31;5093460;28;20020;-74
2021/11/07 08:26:02;;;;;;;94.80;49.97;;;;;;;15.25;73.61;100567.69;5093395;28;20020;-74
2021/11/07 08:28:29;;;;;;;96.13;53.20;;;;;;;15.28;73.75;100566.50;5093269;28;20024;-74
2021/11/07 08:31:03;;;;;;;100.00;53.95;;;;;;;15.26;73.57;100568.53;5093343;28;20510;-74
2021/11/07 08:33:28;;;;;;;77.75;45.90;;;;;;;15.09;73.75;100532.47;5093453;28;20024;-74
2021/11/07 08:35:59;;;;;;;90.07;50.45;;;;;;;15.27;73.86;100563.00;5093052;28;20027;-74
2021/11/07 08:38:30;;;;;;;85.15;49.38;;;;;;;15.24;73.59;100562.56;5091621;28;20115;-74
2021/11/07 08:40:57;;;;;;;78.53;48.97;;;;;;;15.08;73.68;100536.97;5093196;28;20028;-74
2021/11/07 09:04:59;;;;;;;56.72;36.42;;;;;;;15.32;72.47;100517.22;5092590;28;20504;-74
2021/11/07 09:07:37;;;;;;;56.58;37.75;;;;;;;15.49;72.60;100539.97;5092430;28;20038;-74
2021/11/07 09:10:19;;;;;;;64.45;40.30;;;;;;;15.39;72.50;100522.63;5092322;28;20017;-74
2021/11/07 09:12:45;;;;;;;54.53;37.50;;;;;;;15.26;72.50;100502.00;5092592;28;20024;-74
2021/11/07 09:15:14;;;;;;;51.47;36.38;;;;;;;15.22;72.20;100493.56;5092281;28;20031;-74
2021/11/07 09:17:41;;;;;;;50.10;33.67;;;;;;;15.51;72.51;100540.59;5092100;28;20587;-74
2021/11/07 09:20:08;;;;;;;47.17;32.97;;;;;;;15.47;72.52;100522.53;5092138;28;20028;-74
2021/11/07 09:22:40;;;;;;;48.35;33.38;;;;;;;15.34;72.33;100488.59;5092154;28;20069;-74
2021/11/07 09:25:11;;;;;;;51.22;35.00;;;;;;;15.58;72.18;100514.94;5092275;28;20024;-74
2021/11/07 09:30:09;;;;;;;48.63;33.72;;;;;;;15.62;71.73;100507.41;5092184;28;20077;-74
2021/11/07 09:40:28;;;;;;;47.38;35.03;;;;;;;15.31;72.11;100461.53;5092084;28;20032;-74
2021/11/07 09:48:27;;;;;;;47.30;32.92;;;;;;;15.65;71.54;100483.09;5091951;28;20408;-74
2021/11/07 09:50:53;;;;;;;37.67;27.52;;;;;;;15.64;71.63;100484.09;5091843;28;20081;-74
2021/11/07 09:53:20;;;;;;;39.00;28.08;;;;;;;15.41;71.32;100436.28;5090054;28;20022;-74
2021/11/07 09:55:46;;;;;;;37.55;26.75;;;;;;;15.75;71.22;100480.94;5051734;28;20032;-74
2021/11/07 09:58:14;;;;;;;38.63;27.15;;;;;;;15.75;70.79;100480.94;5051224;28;20021;-74
2021/11/07 10:00:49;;;;;;;30.60;22.92;;;;;;;15.78;71.02;100469.91;5051208;28;20048;-74
2021/11/07 10:03:17;;;;;;;37.17;26.50;;;;;;;15.80;70.63;100469.72;5051215;28;20040;-74
2021/11/07 10:05:46;;;;;;;37.92;26.08;;;;;;;15.80;70.39;100469.72;5051344;28;20485;-74
2021/11/07 10:08:12;;;;;;;41.33;27.85;;;;;;;15.49;70.71;100416.72;5051320;28;20013;-74
2021/11/07 10:10:46;;;;;;;35.00;26.48;;;;;;;15.74;70.70;100457.16;5050968;28;20070;-74
2021/11/07 10:13:21;;;;;;;39.15;25.48;;;;;;;15.71;70.69;100439.75;5051321;28;20021;-74
2021/11/07 10:15:50;;;;;;;46.28;28.45;;;;;;;15.75;70.46;100434.84;5051168;28;20033;-74
2021/11/07 10:18:28;;;;;;;36.55;26.27;;;;;;;15.77;70.62;100432.81;5051030;28;20087;-74
2021/11/07 10:20:58;;;;;;;35.10;25.30;;;;;;;15.52;70.54;100395.88;5051229;28;20508;-74
2021/11/07 10:23:30;;;;;;;33.65;25.55;;;;;;;15.76;70.82;100429.34;5051057;28;20108;-74
2021/11/07 10:31:27;;;;;;;38.58;26.83;;;;;;;15.47;70.59;100360.19;5051454;28;20116;-74
2021/11/07 10:52:24;;;;;;;37.85;26.92;;;;;;;15.84;70.50;100375.94;5049807;28;20039;-74
2021/11/07 10:54:50;;;;;;;36.65;27.17;;;;;;;15.87;70.36;100367.56;5051116;28;20032;-74
2021/11/07 10:57:26;;;;;;;35.05;24.92;;;;;;;15.88;70.15;100366.56;5050944;28;20036;-74
2021/11/07 11:00:10;;;;;;;36.85;27.65;;;;;;;15.91;70.36;100359.22;5050851;28;20113;-74
2021/11/07 11:02:41;;;;;;;34.85;25.45;;;;;;;15.60;70.23;100309.78;5051005;28;20104;-74
2021/11/07 11:05:10;;;;;;;35.97;27.93;;;;;;;15.83;70.40;100349.53;5051067;28;20035;-74
2021/11/07 11:08:12;;;;;;;36.65;27.50;;;;;;;15.86;70.07;100344.63;5050633;28;20029;-74
2021/11/07 11:10:55;;;;;;;33.80;25.42;;;;;;;15.79;70.65;100345.59;5043620;28;20425;-74
2021/11/07 11:13:40;;;;;;;39.63;28.63;;;;;;;15.79;70.63;100335.75;5050437;28;20533;-74
2021/11/07 11:37:38;;;;;;;36.20;26.42;;;;;;;15.79;70.74;100314.47;5054373;28;20482;-74
2021/11/07 11:45:24;;;;;;;40.95;30.48;;;;;;;15.83;70.67;100299.75;5054005;28;20017;-74
2021/11/07 11:51:02;;;;;;;40.40;28.60;;;;;;;15.84;70.68;100280.09;5054108;28;20029;-74
2021/11/07 11:59:50;;;;;;;39.30;28.75;;;;;;;15.85;70.87;100256.94;5052277;28;20048;-74
2021/11/07 12:05:13;;;;;;;43.03;31.13;;;;;;;15.83;70.83;100251.00;5053782;28;20028;-74
2021/11/07 12:07:53;;;;;;;37.88;29.15;;;;;;;15.83;71.04;100249.16;5053553;28;20025;-74
2021/11/07 12:10:27;;;;;;;37.17;27.73;;;;;;;15.81;71.19;100242.38;5053362;28;20029;-74
2021/11/07 12:12:58;;;;;;;37.60;29.40;;;;;;;15.80;71.01;100244.22;5053310;28;20021;-74
2021/11/07 12:15:28;;;;;;;35.90;28.25;;;;;;;15.75;71.22;100237.81;5053234;28;20032;-74
2021/11/07 12:18:10;;;;;;;40.75;30.65;;;;;;;15.86;71.08;100248.75;5053186;28;20060;-74
2021/11/07 12:20:39;;;;;;;37.20;30.17;;;;;;;15.88;71.13;100240.56;5053507;28;20090;-74
2021/11/07 12:23:21;;;;;;;36.28;29.67;;;;;;;15.86;70.77;100239.94;5053380;28;20422;-74
2021/11/07 12:25:49;;;;;;;42.63;30.13;;;;;;;15.85;70.97;100231.13;5053212;28;20025;-74
2021/11/07 12:28:16;;;;;;;41.17;31.98;;;;;;;15.90;71.00;100246.53;5053056;28;20021;-74
2021/11/07 12:30:42;;;;;;;36.92;29.17;;;;;;;15.90;71.08;100233.22;5052933;28;20488;-74
2021/11/07 12:33:16;;;;;;;42.63;30.42;;;;;;;15.93;70.57;100232.81;5052725;28;20032;-74
2021/11/07 12:41:21;;;;;;;37.78;30.00;;;;;;;15.91;71.13;100223.38;5052936;28;20044;-74
2021/11/07 12:44:00;;;;;;;38.90;31.33;;;;;;;15.85;71.08;100217.00;5052780;28;20048;-73
2021/11/07 12:46:44;;;;;;;35.63;28.90;;;;;;;15.84;71.02;100220.69;5052607;28;20490;-73
2021/11/07 12:49:15;;;;;;;39.17;28.77;;;;;;;15.78;71.21;100211.63;5052816;28;20078;-73
2021/11/07 12:51:47;;;;;;;40.95;31.45;;;;;;;15.78;71.12;100216.13;5052695;28;20418;-74
2021/11/07 12:54:29;;;;;;;42.17;32.22;;;;;;;15.76;71.19;100213.66;5052705;28;20021;-73
2021/11/07 12:57:05;;;;;;;39.47;30.52;;;;;;;15.81;70.87;100205.09;5052710;28;20035;-73
2021/11/07 12:59:42;;;;;;;38.13;30.45;;;;;;;15.82;71.09;100212.88;5052756;28;20029;-73
2021/11/07 13:02:10;;;;;;;42.88;33.70;;;;;;;15.82;71.06;100212.88;5052457;28;20035;-73
2021/11/07 13:04:43;;;;;;;36.47;28.52;;;;;;;15.82;71.06;100210.22;5051028;28;20037;-73
2021/11/07 13:07:18;;;;;;;36.47;28.75;;;;;;;15.86;71.13;100213.31;5052272;28;20485;-73
2021/11/07 13:09:46;;;;;;;40.50;29.35;;;;;;;15.83;70.99;100205.72;5052480;28;20025;-73
2021/11/07 13:12:24;;;;;;;36.22;27.98;;;;;;;15.86;70.89;100208.81;5052387;28;20025;-73
2021/11/07 13:28:28;;;;;;;41.83;32.08;;;;;;;15.82;71.23;100199.56;5052030;28;20111;-73
2021/11/07 13:31:12;;;;;;;45.35;33.22;;;;;;;15.45;70.95;100128.84;5051829;28;20021;-73
2021/11/07 13:33:41;;;;;;;42.35;31.58;;;;;;;15.86;71.13;100184.03;5051828;28;20493;-74
2021/11/07 13:36:07;;;;;;;45.35;31.92;;;;;;;15.61;71.01;100142.94;5051632;28;20028;-73
2021/11/07 13:39:02;;;;;;;41.83;31.25;;;;;;;15.85;71.00;100180.53;5050444;28;20508;-73
2021/11/07 13:41:28;;;;;;;42.78;33.50;;;;;;;15.52;71.24;100116.41;5051638;28;20029;-73
2021/11/07 13:44:17;;;;;;;40.17;30.17;;;;;;;15.85;71.08;100174.41;5049696;28;20498;-73
2021/11/07 13:46:55;;;;;;;40.45;30.88;;;;;;;15.86;71.05;100174.19;5050376;28;20025;-73
2021/11/07 13:49:22;;;;;;;44.15;33.83;;;;;;;15.56;70.93;100128.31;5051784;28;20390;-73
2021/11/07 13:52:08;;;;;;;47.08;32.95;;;;;;;15.87;70.86;100165.19;5051728;28;20033;-74
2021/11/07 13:54:38;;;;;;;45.00;33.72;;;;;;;15.88;70.88;100160.69;5051398;28;20025;-73
2021/11/07 13:57:03;;;;;;;47.33;35.45;;;;;;;15.88;70.93;100160.69;5051618;28;20025;-73
2021/11/07 13:59:49;;;;;;;50.28;34.08;;;;;;;15.85;70.95;100163.75;5051473;28;20028;-73